sensor_id;sensor_type;location;lat;lon;timestamp;P1;durP1;ratioP1;P2;durP2;ratioP2
31081;SDS011;17737;52.586;13.284;2023-05-25T00:01:47;0.38;;;0.38;;
31081;SDS011;17737;52.586;13.284;2023-05-25T00:04:15;0.40;;;0.40;;
31081;SDS011;17737;52.586;13.284;2023-05-25T00:06:44;0.30;;;0.30;;
31081;SDS011;17737;52.586;13.284;2023-05-25T00:09:14;0.40;;;0.40;;
31081;SDS011;17737;52.586;13.284;2023-05-25T00:11:43;0.40;;;0.40;;
31081;SDS011;17737;52.586;13.284;2023-05-25T00:14:11;0.47;;;0.47;;
31081;SDS011;17737;52.586;13.284;2023-05-25T00:16:40;0.30;;;0.30;;
31081;SDS011;17737;52.586;13.284;2023-05-25T00:19:08;0.47;;;0.47;;
31081;SDS011;17737;52.586;13.284;2023-05-25T00:21:36;0.40;;;0.40;;
31081;SDS011;17737;52.586;13.284;2023-05-25T00:24:04;0.30;;;0.30;;
31081;SDS011;17737;52.586;13.284;2023-05-25T00:26:34;0.30;;;0.30;;
31081;SDS011;17737;52.586;13.284;2023-05-25T00:29:03;0.50;;;0.50;;
31081;SDS011;17737;52.586;13.284;2023-05-25T00:31:32;0.40;;;0.40;;
31081;SDS011;17737;52.586;13.284;2023-05-25T00:34:02;0.40;;;0.40;;
31081;SDS011;17737;52.586;13.284;2023-05-25T00:36:30;0.40;;;0.40;;
31081;SDS011;17737;52.586;13.284;2023-05-25T00:38:58;0.40;;;0.40;;
31081;SDS011;17737;52.586;13.284;2023-05-25T00:41:26;0.32;;;0.32;;
31081;SDS011;17737;52.586;13.284;2023-05-25T00:43:58;0.55;;;0.55;;
31081;SDS011;17737;52.586;13.284;2023-05-25T00:48:54;0.40;;;0.40;;
31081;SDS011;17737;52.586;13.284;2023-05-25T00:51:23;0.40;;;0.40;;
31081;SDS011;17737;52.586;13.284;2023-05-25T00:53:53;0.40;;;0.40;;
31081;SDS011;17737;52.586;13.284;2023-05-25T00:56:22;0.30;;;0.30;;
31081;SDS011;17737;52.586;13.284;2023-05-25T00:58:59;0.40;;;0.40;;
31081;SDS011;17737;52.586;13.284;2023-05-25T01:01:34;0.50;;;0.50;;
31081;SDS011;17737;52.586;13.284;2023-05-25T01:04:06;0.40;;;0.40;;
31081;SDS011;17737;52.586;13.284;2023-05-25T01:06:38;0.47;;;0.47;;
31081;SDS011;17737;52.586;13.284;2023-05-25T01:09:12;0.30;;;0.30;;
31081;SDS011;17737;52.586;13.284;2023-05-25T01:11:47;0.35;;;0.35;;
31081;SDS011;17737;52.586;13.284;2023-05-25T01:14:19;0.40;;;0.40;;
31081;SDS011;17737;52.586;13.284;2023-05-25T01:16:48;0.30;;;0.30;;
31081;SDS011;17737;52.586;13.284;2023-05-25T01:19:17;0.32;;;0.32;;
31081;SDS011;17737;52.586;13.284;2023-05-25T01:21:46;0.40;;;0.40;;
31081;SDS011;17737;52.586;13.284;2023-05-25T01:24:27;0.30;;;0.30;;
31081;SDS011;17737;52.586;13.284;2023-05-25T01:27:08;0.40;;;0.40;;
31081;SDS011;17737;52.586;13.284;2023-05-25T01:29:43;0.40;;;0.40;;
31081;SDS011;17737;52.586;13.284;2023-05-25T01:32:14;0.43;;;0.43;;
31081;SDS011;17737;52.586;13.284;2023-05-25T01:34:44;0.43;;;0.43;;
31081;SDS011;17737;52.586;13.284;2023-05-25T01:37:16;0.40;;;0.40;;
31081;SDS011;17737;52.586;13.284;2023-05-25T01:39:49;0.30;;;0.30;;
31081;SDS011;17737;52.586;13.284;2023-05-25T01:42:17;0.40;;;0.40;;
31081;SDS011;17737;52.586;13.284;2023-05-25T01:44:45;0.40;;;0.40;;
31081;SDS011;17737;52.586;13.284;2023-05-25T01:47:15;0.40;;;0.40;;
31081;SDS011;17737;52.586;13.284;2023-05-25T01:49:55;0.50;;;0.50;;
31081;SDS011;17737;52.586;13.284;2023-05-25T01:52:33;0.40;;;0.40;;
31081;SDS011;17737;52.586;13.284;2023-05-25T01:55:10;0.38;;;0.38;;
31081;SDS011;17737;52.586;13.284;2023-05-25T01:57:42;0.30;;;0.30;;
31081;SDS011;17737;52.586;13.284;2023-05-25T02:00:16;0.50;;;0.50;;
31081;SDS011;17737;52.586;13.284;2023-05-25T02:02:46;0.35;;;0.35;;
31081;SDS011;17737;52.586;13.284;2023-05-25T02:05:17;0.45;;;0.45;;
31081;SDS011;17737;52.586;13.284;2023-05-25T02:07:48;0.40;;;0.40;;
31081;SDS011;17737;52.586;13.284;2023-05-25T02:10:16;0.40;;;0.40;;
31081;SDS011;17737;52.586;13.284;2023-05-25T02:12:44;0.50;;;0.50;;
31081;SDS011;17737;52.586;13.284;2023-05-25T02:15:12;0.52;;;0.52;;
31081;SDS011;17737;52.586;13.284;2023-05-25T02:17:42;0.50;;;0.50;;
31081;SDS011;17737;52.586;13.284;2023-05-25T02:20:10;0.30;;;0.30;;
31081;SDS011;17737;52.586;13.284;2023-05-25T02:22:39;0.40;;;0.40;;
31081;SDS011;17737;52.586;13.284;2023-05-25T02:25:09;0.55;;;0.55;;
31081;SDS011;17737;52.586;13.284;2023-05-25T02:27:37;0.50;;;0.50;;
31081;SDS011;17737;52.586;13.284;2023-05-25T02:30:06;0.50;;;0.50;;
31081;SDS011;17737;52.586;13.284;2023-05-25T02:32:35;0.30;;;0.30;;
31081;SDS011;17737;52.586;13.284;2023-05-25T02:35:03;0.40;;;0.40;;
31081;SDS011;17737;52.586;13.284;2023-05-25T02:37:32;0.40;;;0.40;;
31081;SDS011;17737;52.586;13.284;2023-05-25T02:40:00;0.50;;;0.50;;
31081;SDS011;17737;52.586;13.284;2023-05-25T02:42:30;0.50;;;0.50;;
31081;SDS011;17737;52.586;13.284;2023-05-25T02:44:58;0.40;;;0.40;;
31081;SDS011;17737;52.586;13.284;2023-05-25T02:47:25;0.40;;;0.40;;
31081;SDS011;17737;52.586;13.284;2023-05-25T02:49:54;0.40;;;0.40;;
31081;SDS011;17737;52.586;13.284;2023-05-25T02:52:22;0.60;;;0.60;;
31081;SDS011;17737;52.586;13.284;2023-05-25T02:54:50;0.50;;;0.50;;
31081;SDS011;17737;52.586;13.284;2023-05-25T02:57:18;0.40;;;0.40;;
31081;SDS011;17737;52.586;13.284;2023-05-25T02:59:48;0.50;;;0.50;;
31081;SDS011;17737;52.586;13.284;2023-05-25T03:02:17;0.40;;;0.40;;
31081;SDS011;17737;52.586;13.284;2023-05-25T03:04:46;0.50;;;0.50;;
31081;SDS011;17737;52.586;13.284;2023-05-25T03:07:15;0.65;;;0.60;;
31081;SDS011;17737;52.586;13.284;2023-05-25T03:09:43;0.43;;;0.43;;
31081;SDS011;17737;52.586;13.284;2023-05-25T03:12:11;0.35;;;0.35;;
31081;SDS011;17737;52.586;13.284;2023-05-25T03:14:39;0.38;;;0.38;;
31081;SDS011;17737;52.586;13.284;2023-05-25T03:17:08;0.50;;;0.50;;
31081;SDS011;17737;52.586;13.284;2023-05-25T03:19:36;0.40;;;0.40;;
31081;SDS011;17737;52.586;13.284;2023-05-25T03:22:04;0.40;;;0.40;;
31081;SDS011;17737;52.586;13.284;2023-05-25T03:24:32;0.57;;;0.57;;
31081;SDS011;17737;52.586;13.284;2023-05-25T03:27:00;0.43;;;0.43;;
31081;SDS011;17737;52.586;13.284;2023-05-25T03:29:28;0.50;;;0.50;;
31081;SDS011;17737;52.586;13.284;2023-05-25T03:31:56;0.52;;;0.52;;
31081;SDS011;17737;52.586;13.284;2023-05-25T03:34:26;0.50;;;0.50;;
31081;SDS011;17737;52.586;13.284;2023-05-25T03:36:55;0.40;;;0.40;;
31081;SDS011;17737;52.586;13.284;2023-05-25T03:39:23;0.50;;;0.50;;
31081;SDS011;17737;52.586;13.284;2023-05-25T03:41:51;0.35;;;0.35;;
31081;SDS011;17737;52.586;13.284;2023-05-25T03:44:20;0.52;;;0.52;;
31081;SDS011;17737;52.586;13.284;2023-05-25T03:46:48;0.43;;;0.43;;
31081;SDS011;17737;52.586;13.284;2023-05-25T03:49:16;0.30;;;0.30;;
31081;SDS011;17737;52.586;13.284;2023-05-25T03:51:46;0.50;;;0.50;;
31081;SDS011;17737;52.586;13.284;2023-05-25T03:54:14;0.30;;;0.30;;
31081;SDS011;17737;52.586;13.284;2023-05-25T03:56:42;0.40;;;0.40;;
31081;SDS011;17737;52.586;13.284;2023-05-25T03:59:10;0.40;;;0.40;;
31081;SDS011;17737;52.586;13.284;2023-05-25T04:01:38;0.47;;;0.47;;
31081;SDS011;17737;52.586;13.284;2023-05-25T04:04:06;0.57;;;0.57;;
31081;SDS011;17737;52.586;13.284;2023-05-25T04:06:34;0.40;;;0.40;;
31081;SDS011;17737;52.586;13.284;2023-05-25T04:09:04;0.40;;;0.40;;
31081;SDS011;17737;52.586;13.284;2023-05-25T04:11:32;0.50;;;0.50;;
31081;SDS011;17737;52.586;13.284;2023-05-25T04:14:00;0.40;;;0.40;;
31081;SDS011;17737;52.586;13.284;2023-05-25T04:16:29;0.30;;;0.30;;
31081;SDS011;17737;52.586;13.284;2023-05-25T04:18:57;0.40;;;0.40;;
31081;SDS011;17737;52.586;13.284;2023-05-25T04:21:25;0.32;;;0.32;;
31081;SDS011;17737;52.586;13.284;2023-05-25T04:23:53;0.32;;;0.32;;
31081;SDS011;17737;52.586;13.284;2023-05-25T04:26:23;0.40;;;0.40;;
31081;SDS011;17737;52.586;13.284;2023-05-25T04:28:52;0.28;;;0.28;;
31081;SDS011;17737;52.586;13.284;2023-05-25T04:31:21;0.40;;;0.40;;
31081;SDS011;17737;52.586;13.284;2023-05-25T04:33:50;0.30;;;0.30;;
31081;SDS011;17737;52.586;13.284;2023-05-25T04:36:18;0.40;;;0.40;;
31081;SDS011;17737;52.586;13.284;2023-05-25T04:38:46;0.20;;;0.20;;
31081;SDS011;17737;52.586;13.284;2023-05-25T04:41:17;0.30;;;0.30;;
31081;SDS011;17737;52.586;13.284;2023-05-25T04:43:46;0.30;;;0.30;;
31081;SDS011;17737;52.586;13.284;2023-05-25T04:46:34;0.30;;;0.30;;
31081;SDS011;17737;52.586;13.284;2023-05-25T04:51:33;0.30;;;0.30;;
31081;SDS011;17737;52.586;13.284;2023-05-25T04:54:02;0.30;;;0.30;;
31081;SDS011;17737;52.586;13.284;2023-05-25T04:56:31;0.40;;;0.40;;
31081;SDS011;17737;52.586;13.284;2023-05-25T04:59:00;0.45;;;0.45;;
31081;SDS011;17737;52.586;13.284;2023-05-25T05:01:29;0.30;;;0.30;;
31081;SDS011;17737;52.586;13.284;2023-05-25T05:03:59;0.30;;;0.30;;
31081;SDS011;17737;52.586;13.284;2023-05-25T05:06:27;0.20;;;0.20;;
31081;SDS011;17737;52.586;13.284;2023-05-25T05:08:57;0.35;;;0.35;;
31081;SDS011;17737;52.586;13.284;2023-05-25T05:11:26;0.30;;;0.30;;
31081;SDS011;17737;52.586;13.284;2023-05-25T05:13:54;0.30;;;0.30;;
31081;SDS011;17737;52.586;13.284;2023-05-25T05:16:23;0.32;;;0.32;;
31081;SDS011;17737;52.586;13.284;2023-05-25T05:18:52;0.30;;;0.30;;
31081;SDS011;17737;52.586;13.284;2023-05-25T05:21:20;0.28;;;0.28;;
31081;SDS011;17737;52.586;13.284;2023-05-25T05:23:48;0.30;;;0.30;;
31081;SDS011;17737;52.586;13.284;2023-05-25T05:26:16;0.20;;;0.20;;
31081;SDS011;17737;52.586;13.284;2023-05-25T05:28:44;0.38;;;0.38;;
31081;SDS011;17737;52.586;13.284;2023-05-25T05:31:12;0.25;;;0.25;;
31081;SDS011;17737;52.586;13.284;2023-05-25T05:33:43;0.30;;;0.30;;
31081;SDS011;17737;52.586;13.284;2023-05-25T05:36:12;0.30;;;0.30;;
31081;SDS011;17737;52.586;13.284;2023-05-25T05:38:40;0.20;;;0.20;;
31081;SDS011;17737;52.586;13.284;2023-05-25T05:41:11;0.40;;;0.40;;
31081;SDS011;17737;52.586;13.284;2023-05-25T05:43:39;0.30;;;0.30;;
31081;SDS011;17737;52.586;13.284;2023-05-25T05:46:09;0.30;;;0.30;;
31081;SDS011;17737;52.586;13.284;2023-05-25T05:48:37;0.30;;;0.30;;
31081;SDS011;17737;52.586;13.284;2023-05-25T05:51:06;0.40;;;0.40;;
31081;SDS011;17737;52.586;13.284;2023-05-25T05:53:34;0.38;;;0.30;;
31081;SDS011;17737;52.586;13.284;2023-05-25T05:56:02;0.30;;;0.30;;
31081;SDS011;17737;52.586;13.284;2023-05-25T05:58:32;0.40;;;0.40;;
31081;SDS011;17737;52.586;13.284;2023-05-25T06:01:00;0.40;;;0.40;;
31081;SDS011;17737;52.586;13.284;2023-05-25T06:03:28;0.32;;;0.32;;
31081;SDS011;17737;52.586;13.284;2023-05-25T06:05:56;0.30;;;0.30;;
31081;SDS011;17737;52.586;13.284;2023-05-25T06:08:26;0.35;;;0.35;;
31081;SDS011;17737;52.586;13.284;2023-05-25T06:10:54;0.35;;;0.35;;
31081;SDS011;17737;52.586;13.284;2023-05-25T06:13:22;0.30;;;0.30;;
31081;SDS011;17737;52.586;13.284;2023-05-25T06:15:50;0.40;;;0.40;;
31081;SDS011;17737;52.586;13.284;2023-05-25T06:18:18;0.30;;;0.30;;
31081;SDS011;17737;52.586;13.284;2023-05-25T06:20:46;0.40;;;0.40;;
31081;SDS011;17737;52.586;13.284;2023-05-25T06:23:14;0.30;;;0.30;;
31081;SDS011;17737;52.586;13.284;2023-05-25T06:25:45;0.20;;;0.20;;
31081;SDS011;17737;52.586;13.284;2023-05-25T06:28:13;0.30;;;0.30;;
31081;SDS011;17737;52.586;13.284;2023-05-25T06:30:41;0.30;;;0.30;;
31081;SDS011;17737;52.586;13.284;2023-05-25T06:33:09;0.30;;;0.30;;
31081;SDS011;17737;52.586;13.284;2023-05-25T06:35:37;0.30;;;0.30;;
31081;SDS011;17737;52.586;13.284;2023-05-25T06:38:05;0.28;;;0.28;;
31081;SDS011;17737;52.586;13.284;2023-05-25T06:40:33;0.40;;;0.40;;
31081;SDS011;17737;52.586;13.284;2023-05-25T06:43:03;0.25;;;0.25;;
31081;SDS011;17737;52.586;13.284;2023-05-25T06:45:31;0.30;;;0.30;;
31081;SDS011;17737;52.586;13.284;2023-05-25T06:47:59;0.30;;;0.30;;
31081;SDS011;17737;52.586;13.284;2023-05-25T06:50:27;0.30;;;0.30;;
31081;SDS011;17737;52.586;13.284;2023-05-25T06:52:55;0.40;;;0.40;;
31081;SDS011;17737;52.586;13.284;2023-05-25T06:55:25;0.35;;;0.35;;
31081;SDS011;17737;52.586;13.284;2023-05-25T06:57:53;0.30;;;0.30;;
31081;SDS011;17737;52.586;13.284;2023-05-25T07:00:23;0.20;;;0.20;;
31081;SDS011;17737;52.586;13.284;2023-05-25T07:02:51;0.30;;;0.30;;
31081;SDS011;17737;52.586;13.284;2023-05-25T07:05:19;0.30;;;0.30;;
31081;SDS011;17737;52.586;13.284;2023-05-25T07:07:48;0.30;;;0.30;;
31081;SDS011;17737;52.586;13.284;2023-05-25T07:10:16;0.25;;;0.25;;
31081;SDS011;17737;52.586;13.284;2023-05-25T07:12:44;0.20;;;0.20;;
31081;SDS011;17737;52.586;13.284;2023-05-25T07:15:12;0.20;;;0.20;;
31081;SDS011;17737;52.586;13.284;2023-05-25T07:17:42;0.30;;;0.30;;
31081;SDS011;17737;52.586;13.284;2023-05-25T07:20:11;0.30;;;0.30;;
31081;SDS011;17737;52.586;13.284;2023-05-25T07:22:39;0.30;;;0.30;;
31081;SDS011;17737;52.586;13.284;2023-05-25T07:25:07;0.30;;;0.30;;
31081;SDS011;17737;52.586;13.284;2023-05-25T07:27:36;0.20;;;0.20;;
31081;SDS011;17737;52.586;13.284;2023-05-25T07:30:05;0.25;;;0.25;;
31081;SDS011;17737;52.586;13.284;2023-05-25T07:32:35;0.30;;;0.30;;
31081;SDS011;17737;52.586;13.284;2023-05-25T07:35:05;0.20;;;0.20;;
31081;SDS011;17737;52.586;13.284;2023-05-25T07:37:34;0.28;;;0.28;;
31081;SDS011;17737;52.586;13.284;2023-05-25T07:40:02;0.20;;;0.20;;
31081;SDS011;17737;52.586;13.284;2023-05-25T07:42:31;0.30;;;0.30;;
31081;SDS011;17737;52.586;13.284;2023-05-25T07:45:00;0.30;;;0.30;;
31081;SDS011;17737;52.586;13.284;2023-05-25T07:47:29;0.30;;;0.30;;
31081;SDS011;17737;52.586;13.284;2023-05-25T07:49:57;0.30;;;0.30;;
31081;SDS011;17737;52.586;13.284;2023-05-25T07:52:26;0.20;;;0.20;;
31081;SDS011;17737;52.586;13.284;2023-05-25T07:54:54;0.30;;;0.30;;
31081;SDS011;17737;52.586;13.284;2023-05-25T07:57:22;0.20;;;0.20;;
31081;SDS011;17737;52.586;13.284;2023-05-25T07:59:51;0.30;;;0.30;;
31081;SDS011;17737;52.586;13.284;2023-05-25T08:02:19;0.20;;;0.20;;
31081;SDS011;17737;52.586;13.284;2023-05-25T08:04:47;0.20;;;0.20;;
31081;SDS011;17737;52.586;13.284;2023-05-25T08:07:17;0.30;;;0.30;;
31081;SDS011;17737;52.586;13.284;2023-05-25T08:09:47;0.20;;;0.20;;
31081;SDS011;17737;52.586;13.284;2023-05-25T08:12:15;0.30;;;0.30;;
31081;SDS011;17737;52.586;13.284;2023-05-25T08:14:46;0.30;;;0.30;;
31081;SDS011;17737;52.586;13.284;2023-05-25T08:17:14;0.30;;;0.30;;
31081;SDS011;17737;52.586;13.284;2023-05-25T08:19:42;0.30;;;0.30;;
31081;SDS011;17737;52.586;13.284;2023-05-25T08:22:10;0.20;;;0.20;;
31081;SDS011;17737;52.586;13.284;2023-05-25T08:24:38;0.22;;;0.22;;
31081;SDS011;17737;52.586;13.284;2023-05-25T08:27:08;0.30;;;0.30;;
31081;SDS011;17737;52.586;13.284;2023-05-25T08:29:36;0.30;;;0.30;;
31081;SDS011;17737;52.586;13.284;2023-05-25T08:32:04;0.20;;;0.20;;
31081;SDS011;17737;52.586;13.284;2023-05-25T08:34:33;0.20;;;0.20;;
31081;SDS011;17737;52.586;13.284;2023-05-25T08:37:01;0.30;;;0.30;;
31081;SDS011;17737;52.586;13.284;2023-05-25T08:39:29;0.40;;;0.40;;
31081;SDS011;17737;52.586;13.284;2023-05-25T08:42:00;0.30;;;0.30;;
31081;SDS011;17737;52.586;13.284;2023-05-25T08:44:30;0.30;;;0.30;;
31081;SDS011;17737;52.586;13.284;2023-05-25T08:46:58;0.30;;;0.30;;
31081;SDS011;17737;52.586;13.284;2023-05-25T08:49:33;0.25;;;0.25;;
31081;SDS011;17737;52.586;13.284;2023-05-25T08:52:05;0.30;;;0.30;;
31081;SDS011;17737;52.586;13.284;2023-05-25T08:54:41;0.30;;;0.30;;
31081;SDS011;17737;52.586;13.284;2023-05-25T08:57:12;0.30;;;0.30;;
31081;SDS011;17737;52.586;13.284;2023-05-25T08:59:49;0.30;;;0.30;;
31081;SDS011;17737;52.586;13.284;2023-05-25T09:02:28;0.20;;;0.20;;
31081;SDS011;17737;52.586;13.284;2023-05-25T09:05:05;0.30;;;0.30;;
31081;SDS011;17737;52.586;13.284;2023-05-25T09:10:03;0.40;;;0.40;;
31081;SDS011;17737;52.586;13.284;2023-05-25T09:12:33;0.20;;;0.20;;
31081;SDS011;17737;52.586;13.284;2023-05-25T09:15:07;0.30;;;0.30;;
31081;SDS011;17737;52.586;13.284;2023-05-25T09:17:38;0.20;;;0.20;;
31081;SDS011;17737;52.586;13.284;2023-05-25T09:20:07;0.20;;;0.20;;
31081;SDS011;17737;52.586;13.284;2023-05-25T09:22:39;0.30;;;0.30;;
31081;SDS011;17737;52.586;13.284;2023-05-25T09:25:08;0.20;;;0.20;;
31081;SDS011;17737;52.586;13.284;2023-05-25T09:30:07;0.20;;;0.20;;
31081;SDS011;17737;52.586;13.284;2023-05-25T09:32:36;0.20;;;0.20;;
31081;SDS011;17737;52.586;13.284;2023-05-25T09:35:05;0.40;;;0.40;;
31081;SDS011;17737;52.586;13.284;2023-05-25T09:37:34;0.30;;;0.30;;
31081;SDS011;17737;52.586;13.284;2023-05-25T09:40:04;0.20;;;0.20;;
31081;SDS011;17737;52.586;13.284;2023-05-25T09:42:34;0.20;;;0.20;;
31081;SDS011;17737;52.586;13.284;2023-05-25T09:45:03;0.30;;;0.30;;
31081;SDS011;17737;52.586;13.284;2023-05-25T09:47:35;0.30;;;0.30;;
31081;SDS011;17737;52.586;13.284;2023-05-25T09:50:03;0.30;;;0.30;;
31081;SDS011;17737;52.586;13.284;2023-05-25T09:52:33;0.20;;;0.20;;
31081;SDS011;17737;52.586;13.284;2023-05-25T09:55:02;0.28;;;0.28;;
31081;SDS011;17737;52.586;13.284;2023-05-25T09:57:35;0.30;;;0.30;;
31081;SDS011;17737;52.586;13.284;2023-05-25T10:00:04;0.20;;;0.20;;
31081;SDS011;17737;52.586;13.284;2023-05-25T10:02:36;0.30;;;0.30;;
31081;SDS011;17737;52.586;13.284;2023-05-25T10:05:05;0.22;;;0.22;;
31081;SDS011;17737;52.586;13.284;2023-05-25T10:10:06;0.30;;;0.30;;
31081;SDS011;17737;52.586;13.284;2023-05-25T10:12:36;0.15;;;0.15;;
31081;SDS011;17737;52.586;13.284;2023-05-25T10:15:10;0.20;;;0.20;;
31081;SDS011;17737;52.586;13.284;2023-05-25T10:17:42;0.20;;;0.20;;
31081;SDS011;17737;52.586;13.284;2023-05-25T10:20:15;0.20;;;0.20;;
31081;SDS011;17737;52.586;13.284;2023-05-25T10:22:43;0.30;;;0.30;;
31081;SDS011;17737;52.586;13.284;2023-05-25T10:25:21;0.20;;;0.20;;
31081;SDS011;17737;52.586;13.284;2023-05-25T10:27:55;0.30;;;0.30;;
31081;SDS011;17737;52.586;13.284;2023-05-25T10:30:27;0.20;;;0.20;;
31081;SDS011;17737;52.586;13.284;2023-05-25T10:32:56;0.20;;;0.20;;
31081;SDS011;17737;52.586;13.284;2023-05-25T10:35:25;0.30;;;0.30;;
31081;SDS011;17737;52.586;13.284;2023-05-25T10:37:57;0.25;;;0.25;;
31081;SDS011;17737;52.586;13.284;2023-05-25T10:40:28;0.30;;;0.30;;
31081;SDS011;17737;52.586;13.284;2023-05-25T10:42:57;0.30;;;0.30;;
31081;SDS011;17737;52.586;13.284;2023-05-25T10:45:28;0.30;;;0.30;;
31081;SDS011;17737;52.586;13.284;2023-05-25T10:47:56;0.20;;;0.20;;
31081;SDS011;17737;52.586;13.284;2023-05-25T10:50:25;0.22;;;0.22;;
31081;SDS011;17737;52.586;13.284;2023-05-25T10:52:57;0.25;;;0.25;;
31081;SDS011;17737;52.586;13.284;2023-05-25T10:55:27;0.20;;;0.20;;
31081;SDS011;17737;52.586;13.284;2023-05-25T10:58:07;0.30;;;0.30;;
31081;SDS011;17737;52.586;13.284;2023-05-25T11:00:38;0.20;;;0.20;;
31081;SDS011;17737;52.586;13.284;2023-05-25T11:03:08;0.25;;;0.25;;
31081;SDS011;17737;52.586;13.284;2023-05-25T11:05:37;0.30;;;0.30;;
31081;SDS011;17737;52.586;13.284;2023-05-25T11:08:06;0.30;;;0.30;;
31081;SDS011;17737;52.586;13.284;2023-05-25T11:10:41;0.30;;;0.30;;
31081;SDS011;17737;52.586;13.284;2023-05-25T11:13:22;0.25;;;0.25;;
31081;SDS011;17737;52.586;13.284;2023-05-25T11:16:13;0.30;;;0.30;;
31081;SDS011;17737;52.586;13.284;2023-05-25T11:18:44;0.28;;;0.28;;
31081;SDS011;17737;52.586;13.284;2023-05-25T11:21:20;0.20;;;0.20;;
31081;SDS011;17737;52.586;13.284;2023-05-25T11:24:11;0.28;;;0.28;;
31081;SDS011;17737;52.586;13.284;2023-05-25T11:26:54;0.40;;;0.40;;
31081;SDS011;17737;52.586;13.284;2023-05-25T11:29:25;0.20;;;0.20;;
31081;SDS011;17737;52.586;13.284;2023-05-25T11:31:59;0.30;;;0.30;;
31081;SDS011;17737;52.586;13.284;2023-05-25T11:36:58;0.28;;;0.28;;
31081;SDS011;17737;52.586;13.284;2023-05-25T11:39:29;0.20;;;0.20;;
31081;SDS011;17737;52.586;13.284;2023-05-25T11:42:00;0.20;;;0.20;;
31081;SDS011;17737;52.586;13.284;2023-05-25T11:44:32;0.30;;;0.30;;
31081;SDS011;17737;52.586;13.284;2023-05-25T11:47:06;0.20;;;0.20;;
31081;SDS011;17737;52.586;13.284;2023-05-25T11:49:38;0.20;;;0.20;;
31081;SDS011;17737;52.586;13.284;2023-05-25T11:52:10;0.30;;;0.30;;
31081;SDS011;17737;52.586;13.284;2023-05-25T11:54:40;0.40;;;0.40;;
31081;SDS011;17737;52.586;13.284;2023-05-25T11:57:12;0.20;;;0.20;;
31081;SDS011;17737;52.586;13.284;2023-05-25T11:59:46;0.30;;;0.30;;
31081;SDS011;17737;52.586;13.284;2023-05-25T12:02:17;0.20;;;0.20;;
31081;SDS011;17737;52.586;13.284;2023-05-25T12:04:51;0.25;;;0.25;;
31081;SDS011;17737;52.586;13.284;2023-05-25T12:07:21;0.28;;;0.28;;
31081;SDS011;17737;52.586;13.284;2023-05-25T12:09:50;0.30;;;0.30;;
31081;SDS011;17737;52.586;13.284;2023-05-25T12:12:18;0.20;;;0.20;;
31081;SDS011;17737;52.586;13.284;2023-05-25T12:14:47;0.30;;;0.30;;
31081;SDS011;17737;52.586;13.284;2023-05-25T12:17:15;0.20;;;0.20;;
31081;SDS011;17737;52.586;13.284;2023-05-25T12:19:47;0.30;;;0.30;;
31081;SDS011;17737;52.586;13.284;2023-05-25T12:22:16;0.40;;;0.40;;
31081;SDS011;17737;52.586;13.284;2023-05-25T12:24:45;0.30;;;0.30;;
31081;SDS011;17737;52.586;13.284;2023-05-25T12:27:15;0.20;;;0.20;;
31081;SDS011;17737;52.586;13.284;2023-05-25T12:29:44;0.30;;;0.30;;
31081;SDS011;17737;52.586;13.284;2023-05-25T12:32:13;0.20;;;0.20;;
31081;SDS011;17737;52.586;13.284;2023-05-25T12:34:43;0.30;;;0.30;;
31081;SDS011;17737;52.586;13.284;2023-05-25T12:37:17;0.40;;;0.40;;
31081;SDS011;17737;52.586;13.284;2023-05-25T12:39:48;0.30;;;0.30;;
31081;SDS011;17737;52.586;13.284;2023-05-25T12:42:16;0.20;;;0.20;;
31081;SDS011;17737;52.586;13.284;2023-05-25T12:44:45;0.20;;;0.20;;
31081;SDS011;17737;52.586;13.284;2023-05-25T12:47:13;0.20;;;0.20;;
31081;SDS011;17737;52.586;13.284;2023-05-25T12:49:46;0.20;;;0.20;;
31081;SDS011;17737;52.586;13.284;2023-05-25T12:55:20;0.20;;;0.20;;
31081;SDS011;17737;52.586;13.284;2023-05-25T12:57:52;0.20;;;0.20;;
31081;SDS011;17737;52.586;13.284;2023-05-25T13:00:21;0.30;;;0.30;;
31081;SDS011;17737;52.586;13.284;2023-05-25T13:02:51;0.20;;;0.20;;
31081;SDS011;17737;52.586;13.284;2023-05-25T13:05:22;0.20;;;0.20;;
31081;SDS011;17737;52.586;13.284;2023-05-25T13:07:53;0.30;;;0.30;;
31081;SDS011;17737;52.586;13.284;2023-05-25T13:10:23;0.20;;;0.20;;
31081;SDS011;17737;52.586;13.284;2023-05-25T13:12:52;0.10;;;0.10;;
31081;SDS011;17737;52.586;13.284;2023-05-25T13:15:23;0.20;;;0.20;;
31081;SDS011;17737;52.586;13.284;2023-05-25T13:20:23;0.20;;;0.20;;
31081;SDS011;17737;52.586;13.284;2023-05-25T13:22:55;0.20;;;0.20;;
31081;SDS011;17737;52.586;13.284;2023-05-25T13:25:23;0.20;;;0.20;;
31081;SDS011;17737;52.586;13.284;2023-05-25T13:27:52;0.20;;;0.20;;
31081;SDS011;17737;52.586;13.284;2023-05-25T13:30:23;0.20;;;0.20;;
31081;SDS011;17737;52.586;13.284;2023-05-25T13:32:52;0.20;;;0.20;;
31081;SDS011;17737;52.586;13.284;2023-05-25T13:35:20;0.20;;;0.20;;
31081;SDS011;17737;52.586;13.284;2023-05-25T13:38:04;0.28;;;0.28;;
31081;SDS011;17737;52.586;13.284;2023-05-25T13:40:32;0.20;;;0.20;;
31081;SDS011;17737;52.586;13.284;2023-05-25T13:43:00;0.30;;;0.30;;
31081;SDS011;17737;52.586;13.284;2023-05-25T13:45:28;0.20;;;0.20;;
31081;SDS011;17737;52.586;13.284;2023-05-25T13:47:56;0.20;;;0.20;;
31081;SDS011;17737;52.586;13.284;2023-05-25T13:50:25;0.30;;;0.30;;
31081;SDS011;17737;52.586;13.284;2023-05-25T13:52:52;0.20;;;0.20;;
31081;SDS011;17737;52.586;13.284;2023-05-25T13:55:22;0.20;;;0.20;;
31081;SDS011;17737;52.586;13.284;2023-05-25T13:57:50;0.20;;;0.20;;
31081;SDS011;17737;52.586;13.284;2023-05-25T14:00:19;0.20;;;0.20;;
31081;SDS011;17737;52.586;13.284;2023-05-25T14:02:47;0.30;;;0.30;;
31081;SDS011;17737;52.586;13.284;2023-05-25T14:05:15;0.20;;;0.20;;
31081;SDS011;17737;52.586;13.284;2023-05-25T14:07:44;0.20;;;0.20;;
31081;SDS011;17737;52.586;13.284;2023-05-25T14:10:13;0.20;;;0.20;;
31081;SDS011;17737;52.586;13.284;2023-05-25T14:12:43;0.20;;;0.20;;
31081;SDS011;17737;52.586;13.284;2023-05-25T14:15:11;0.10;;;0.10;;
31081;SDS011;17737;52.586;13.284;2023-05-25T14:17:39;0.25;;;0.25;;
31081;SDS011;17737;52.586;13.284;2023-05-25T14:20:07;0.10;;;0.10;;
31081;SDS011;17737;52.586;13.284;2023-05-25T14:22:40;0.13;;;0.13;;
31081;SDS011;17737;52.586;13.284;2023-05-25T14:25:08;0.13;;;0.13;;
31081;SDS011;17737;52.586;13.284;2023-05-25T14:27:36;0.20;;;0.20;;
31081;SDS011;17737;52.586;13.284;2023-05-25T14:30:06;0.17;;;0.17;;
31081;SDS011;17737;52.586;13.284;2023-05-25T14:32:35;0.20;;;0.20;;
31081;SDS011;17737;52.586;13.284;2023-05-25T14:35:04;0.10;;;0.10;;
31081;SDS011;17737;52.586;13.284;2023-05-25T14:37:33;0.10;;;0.10;;
31081;SDS011;17737;52.586;13.284;2023-05-25T14:40:01;0.10;;;0.10;;
31081;SDS011;17737;52.586;13.284;2023-05-25T14:42:30;0.20;;;0.20;;
31081;SDS011;17737;52.586;13.284;2023-05-25T14:44:58;0.10;;;0.10;;
31081;SDS011;17737;52.586;13.284;2023-05-25T14:47:27;0.10;;;0.10;;
31081;SDS011;17737;52.586;13.284;2023-05-25T14:49:55;0.13;;;0.13;;
31081;SDS011;17737;52.586;13.284;2023-05-25T14:52:23;0.20;;;0.20;;
31081;SDS011;17737;52.586;13.284;2023-05-25T14:54:51;0.20;;;0.20;;
31081;SDS011;17737;52.586;13.284;2023-05-25T14:57:19;0.20;;;0.20;;
31081;SDS011;17737;52.586;13.284;2023-05-25T14:59:47;0.10;;;0.10;;
31081;SDS011;17737;52.586;13.284;2023-05-25T15:02:15;0.13;;;0.13;;
31081;SDS011;17737;52.586;13.284;2023-05-25T15:04:45;0.17;;;0.17;;
31081;SDS011;17737;52.586;13.284;2023-05-25T15:07:13;0.10;;;0.10;;
31081;SDS011;17737;52.586;13.284;2023-05-25T15:09:41;0.17;;;0.17;;